createdAt,value
2022-12-13T00:01:38.304Z,18.13
2022-12-13T00:04:26.684Z,18.58
2022-12-13T00:07:12.140Z,19.48
2022-12-13T00:09:57.596Z,16.77
2022-12-13T00:12:43.133Z,18.33
2022-12-13T00:15:28.618Z,18.27
2022-12-13T00:18:14.212Z,17.23
2022-12-13T00:21:08.229Z,19.25
2022-12-13T00:23:54.303Z,17.48
2022-12-13T00:26:39.484Z,17.45
2022-12-13T00:29:25.679Z,17.08
2022-12-13T00:32:11.277Z,16.30
2022-12-13T00:34:56.739Z,16.80
2022-12-13T00:37:42.351Z,17.60
2022-12-13T00:40:29.088Z,19.13
2022-12-13T00:43:14.444Z,18.77
2022-12-13T00:46:00.151Z,17.58
2022-12-13T00:48:50.367Z,17.40
2022-12-13T00:51:35.789Z,15.95
2022-12-13T00:54:21.418Z,16.70
2022-12-13T00:57:06.746Z,18.00
2022-12-13T00:59:52.396Z,15.52
2022-12-13T01:02:37.808Z,15.85
2022-12-13T01:05:47.250Z,17.15
2022-12-13T01:08:29.043Z,17.45
2022-12-13T01:11:15.587Z,17.40
2022-12-13T01:14:00.804Z,17.60
2022-12-13T01:16:46.465Z,16.83
2022-12-13T01:19:32.760Z,17.30
2022-12-13T01:22:18.417Z,17.45
2022-12-13T01:25:03.987Z,18.25
2022-12-13T01:27:49.280Z,16.77
2022-12-13T01:30:34.845Z,15.40
2022-12-13T01:33:20.205Z,17.88
2022-12-13T01:36:08.631Z,18.88
2022-12-13T01:38:53.928Z,16.25
2022-12-13T01:41:49.835Z,15.98
2022-12-13T01:45:00.040Z,17.33
2022-12-13T01:47:59.405Z,15.98
2022-12-13T01:50:50.376Z,17.10
2022-12-13T01:53:37.964Z,16.48
2022-12-13T01:56:31.335Z,14.50
2022-12-13T01:59:17.999Z,14.77
2022-12-13T02:02:07.309Z,16.15
2022-12-13T02:05:04.553Z,16.63
2022-12-13T02:07:51.105Z,15.90
2022-12-13T02:10:36.580Z,18.45
2022-12-13T02:13:22.119Z,19.48
2022-12-13T02:16:22.966Z,19.83
2022-12-13T02:19:27.546Z,17.30
2022-12-13T02:22:48.524Z,18.15
2022-12-13T02:25:51.548Z,18.40
2022-12-13T02:32:01.470Z,19.73
2022-12-13T02:35:10.304Z,16.73
2022-12-13T02:38:35.619Z,18.83
2022-12-13T02:41:38.149Z,17.58
2022-12-13T02:44:28.894Z,17.33
2022-12-13T02:47:22.771Z,18.98
2022-12-13T02:50:10.262Z,17.63
2022-12-13T02:52:56.487Z,19.25
2022-12-13T02:55:41.709Z,18.63
2022-12-13T02:58:32.872Z,17.80
2022-12-13T03:01:42.073Z,18.40
2022-12-13T03:05:20.236Z,21.95
2022-12-13T03:08:32.491Z,22.52
2022-12-13T03:11:19.996Z,21.90
2022-12-13T03:14:09.192Z,20.42
2022-12-13T03:16:55.544Z,23.27
2022-12-13T03:19:41.180Z,18.90
2022-12-13T03:22:26.303Z,19.00
2022-12-13T03:25:11.945Z,17.42
2022-12-13T03:27:57.375Z,19.60
2022-12-13T03:30:47.300Z,21.02
2022-12-13T03:33:33.523Z,21.38
2022-12-13T03:36:19.417Z,20.60
2022-12-13T03:39:05.028Z,18.10
2022-12-13T03:41:51.332Z,18.83
2022-12-13T03:44:36.636Z,21.55
2022-12-13T03:47:22.163Z,20.92
2022-12-13T03:50:26.066Z,20.42
2022-12-13T03:53:22.430Z,19.30
2022-12-13T03:56:17.023Z,21.33
2022-12-13T03:59:02.630Z,18.98
2022-12-13T04:01:48.391Z,19.33
2022-12-13T04:04:33.800Z,21.55
2022-12-13T04:07:21.821Z,19.90
2022-12-13T04:10:26.507Z,20.23
2022-12-13T04:13:30.863Z,21.95
2022-12-13T04:16:16.513Z,23.33
2022-12-13T04:19:01.982Z,23.65
2022-12-13T04:21:47.370Z,21.67
2022-12-13T04:24:32.913Z,20.98
2022-12-13T04:27:18.850Z,21.88
2022-12-13T04:30:08.047Z,21.90
2022-12-13T04:32:53.504Z,22.55
2022-12-13T04:35:39.040Z,20.33
2022-12-13T04:38:24.832Z,18.88
2022-12-13T04:41:15.819Z,20.92
2022-12-13T04:44:01.162Z,21.40
2022-12-13T04:46:46.688Z,20.02
2022-12-13T04:49:32.821Z,20.02
2022-12-13T04:52:22.520Z,19.13
2022-12-13T04:55:09.582Z,20.88
2022-12-13T04:57:54.688Z,23.10
2022-12-13T05:00:40.876Z,22.73
2022-12-13T05:03:29.643Z,18.85
2022-12-13T05:06:26.604Z,18.88
2022-12-13T05:09:12.444Z,20.15
2022-12-13T05:12:01.823Z,17.63
2022-12-13T05:14:47.428Z,17.80
2022-12-13T05:17:33.183Z,18.90
2022-12-13T05:20:18.838Z,18.02
2022-12-13T05:23:04.557Z,18.33
2022-12-13T05:25:51.218Z,21.20
2022-12-13T05:28:36.595Z,18.77
2022-12-13T05:31:22.578Z,18.92
2022-12-13T05:34:09.286Z,20.60
2022-12-13T05:36:54.722Z,18.98
2022-12-13T05:39:40.278Z,18.85
2022-12-13T05:42:25.738Z,21.23
2022-12-13T05:45:12.913Z,21.30
2022-12-13T05:47:58.169Z,22.27
2022-12-13T05:50:43.964Z,18.90
2022-12-13T05:53:30.883Z,19.55
2022-12-13T05:56:22.528Z,20.67
2022-12-13T05:59:08.512Z,20.30
2022-12-13T06:01:54.271Z,20.05
2022-12-13T06:04:39.903Z,21.77
2022-12-13T06:07:25.384Z,20.80
2022-12-13T06:10:11.235Z,18.55
2022-12-13T06:13:01.145Z,18.63
2022-12-13T06:15:47.013Z,19.83
2022-12-13T06:18:34.571Z,19.73
2022-12-13T06:21:19.946Z,19.10
2022-12-13T06:24:05.974Z,18.25
2022-12-13T06:26:51.857Z,20.55
2022-12-13T06:29:37.000Z,20.80
2022-12-13T06:32:22.599Z,20.92
2022-12-13T06:35:28.107Z,20.73
2022-12-13T06:38:21.855Z,18.00
2022-12-13T06:41:17.162Z,20.98
2022-12-13T06:44:02.297Z,19.77
2022-12-13T06:46:47.886Z,21.70
2022-12-13T06:49:33.493Z,23.80
2022-12-13T06:52:19.206Z,22.88
2022-12-13T06:55:05.250Z,21.17
2022-12-13T06:57:50.433Z,20.85
2022-12-13T07:00:42.596Z,22.58
2022-12-13T07:03:36.092Z,20.45
2022-12-13T07:06:24.916Z,22.65
2022-12-13T07:09:10.127Z,20.10
2022-12-13T07:11:55.821Z,19.17
2022-12-13T07:14:41.514Z,18.25
2022-12-13T07:17:33.379Z,19.45
2022-12-13T07:20:20.206Z,20.30
2022-12-13T07:23:06.036Z,19.95
2022-12-13T07:25:55.132Z,21.30
2022-12-13T07:28:40.325Z,19.85
2022-12-13T07:31:26.915Z,19.70
2022-12-13T07:34:15.563Z,19.10
2022-12-13T07:37:01.659Z,20.00
2022-12-13T07:39:47.349Z,19.98
2022-12-13T07:42:33.062Z,20.20
2022-12-13T07:45:19.030Z,18.60
2022-12-13T07:48:05.903Z,19.35
2022-12-13T07:50:54.721Z,18.70
2022-12-13T07:53:41.219Z,18.63
2022-12-13T07:56:26.485Z,17.98
2022-12-13T07:59:12.089Z,18.83
2022-12-13T08:01:57.790Z,20.00
2022-12-13T08:04:54.799Z,20.40
2022-12-13T08:07:40.765Z,19.50
2022-12-13T08:10:28.383Z,17.30
2022-12-13T08:13:13.960Z,18.88
2022-12-13T08:16:26.561Z,18.02
2022-12-13T08:19:13.956Z,19.15
2022-12-13T08:22:02.136Z,22.88
2022-12-13T08:24:47.485Z,19.05
2022-12-13T08:27:33.596Z,18.25
2022-12-13T08:30:23.060Z,19.95
2022-12-13T08:33:09.111Z,18.80
2022-12-13T08:35:54.544Z,19.33
2022-12-13T08:38:39.963Z,18.50
2022-12-13T08:41:25.475Z,19.38
2022-12-13T08:44:11.038Z,19.95
2022-12-13T08:46:56.618Z,19.15
2022-12-13T08:49:42.341Z,18.95
2022-12-13T08:52:27.981Z,21.88
2022-12-13T08:55:15.120Z,24.23
2022-12-13T08:58:04.809Z,24.20
2022-12-13T09:00:50.370Z,20.60
2022-12-13T09:03:36.839Z,22.08
2022-12-13T09:06:22.327Z,20.42
2022-12-13T09:09:07.852Z,19.88
2022-12-13T09:11:53.204Z,20.83
2022-12-13T09:14:46.541Z,22.40
2022-12-13T09:17:36.488Z,21.85
2022-12-13T09:20:29.694Z,21.88
2022-12-13T09:26:11.786Z,21.85
2022-12-13T09:29:00.253Z,21.77
2022-12-13T09:31:56.703Z,24.63
2022-12-13T09:34:42.302Z,23.85
2022-12-13T09:37:32.099Z,24.55
2022-12-13T09:40:25.366Z,27.33
2022-12-13T09:43:22.824Z,24.83
2022-12-13T09:46:23.148Z,22.42
2022-12-13T09:49:16.052Z,23.88
2022-12-13T09:52:21.619Z,21.90
2022-12-13T09:55:29.063Z,22.08
2022-12-13T09:58:23.369Z,21.42
2022-12-13T10:01:12.331Z,21.40
2022-12-13T10:04:00.253Z,22.40
2022-12-13T10:06:45.504Z,21.40
2022-12-13T10:09:32.650Z,22.38
2022-12-13T10:12:18.263Z,23.90
2022-12-13T10:15:04.584Z,22.33
2022-12-13T10:17:55.565Z,22.85
2022-12-13T10:20:42.069Z,20.63
2022-12-13T10:23:47.066Z,22.48
2022-12-13T10:26:38.998Z,24.25
2022-12-13T10:29:24.955Z,23.95
2022-12-13T10:32:14.178Z,24.30
2022-12-13T10:34:59.665Z,24.17
2022-12-13T10:37:45.005Z,27.73
2022-12-13T10:40:32.527Z,27.50
2022-12-13T10:43:23.274Z,24.42
2022-12-13T10:46:24.994Z,24.23
2022-12-13T10:49:38.864Z,21.80
2022-12-13T10:52:31.849Z,25.05
2022-12-13T10:55:33.758Z,25.90
2022-12-13T10:58:19.823Z,24.83
2022-12-13T11:01:11.833Z,25.40
2022-12-13T11:04:02.052Z,25.45
2022-12-13T11:06:48.736Z,22.58
2022-12-13T11:09:38.483Z,24.35
2022-12-13T11:12:26.923Z,24.58
2022-12-13T11:15:23.059Z,23.10
2022-12-13T11:18:21.940Z,23.40
2022-12-13T11:21:07.720Z,25.95
2022-12-13T11:23:56.890Z,27.02
2022-12-13T11:26:54.134Z,26.83
2022-12-13T11:30:02.992Z,28.13
2022-12-13T11:32:59.302Z,29.45
2022-12-13T11:36:03.356Z,29.58
2022-12-13T11:39:03.067Z,29.35
2022-12-13T11:41:58.704Z,28.58
2022-12-13T11:45:23.520Z,28.85
2022-12-13T11:48:09.288Z,29.80
2022-12-13T11:50:56.636Z,27.05
2022-12-13T11:53:58.684Z,28.85
2022-12-13T11:56:45.557Z,29.88
2022-12-13T11:59:39.902Z,30.85
2022-12-13T12:02:31.693Z,30.63
2022-12-13T12:05:31.075Z,29.23
2022-12-13T12:08:41.412Z,28.30
2022-12-13T12:11:35.900Z,29.55
2022-12-13T12:14:46.642Z,27.80
2022-12-13T12:17:37.728Z,28.65
2022-12-13T12:20:44.747Z,30.25
2022-12-13T12:23:49.744Z,29.13
2022-12-13T12:26:48.636Z,29.42
2022-12-13T12:30:23.630Z,28.95
2022-12-13T12:33:09.305Z,28.05
2022-12-13T12:36:17.669Z,28.88
2022-12-13T12:39:44.935Z,30.73
2022-12-13T12:42:40.135Z,31.00
2022-12-13T12:46:06.564Z,28.63
2022-12-13T12:49:04.017Z,28.00
2022-12-13T12:52:08.758Z,26.45
2022-12-13T12:55:03.406Z,26.55
2022-12-13T12:58:01.527Z,26.52
2022-12-13T13:01:11.572Z,27.30
2022-12-13T13:04:01.976Z,24.83
2022-12-13T13:07:01.887Z,27.98
2022-12-13T13:09:48.414Z,26.90
2022-12-13T13:12:43.106Z,27.98
2022-12-13T13:15:32.013Z,25.88
2022-12-13T13:18:52.353Z,27.13
2022-12-13T13:21:44.331Z,28.65
2022-12-13T13:24:31.900Z,25.30
2022-12-13T13:27:31.041Z,24.80
2022-12-13T13:30:25.331Z,25.23
2022-12-13T13:33:45.320Z,25.90
2022-12-13T13:36:41.187Z,29.70
2022-12-13T13:39:27.255Z,27.88
2022-12-13T13:42:19.886Z,26.85
2022-12-13T13:45:23.652Z,31.77
2022-12-13T13:48:48.759Z,32.72
2022-12-13T13:52:26.238Z,32.08
2022-12-13T13:55:36.330Z,31.60
2022-12-13T13:58:48.387Z,29.90
2022-12-13T14:02:04.921Z,32.13
2022-12-13T14:05:10.826Z,31.67
2022-12-13T14:08:21.609Z,26.92
2022-12-13T14:11:31.280Z,32.00
2022-12-13T14:14:54.204Z,31.58
2022-12-13T14:18:21.312Z,28.38
2022-12-13T14:21:15.138Z,29.17
2022-12-13T14:24:03.823Z,29.90
2022-12-13T14:27:17.370Z,33.67
2022-12-13T14:30:09.556Z,32.85
2022-12-13T14:33:20.841Z,32.63
2022-12-13T14:36:13.332Z,32.45
2022-12-13T14:39:24.647Z,31.70
2022-12-13T14:42:33.818Z,34.97
2022-12-13T14:45:25.270Z,30.98
2022-12-13T14:48:15.290Z,33.25
2022-12-13T14:51:00.823Z,31.98
2022-12-13T14:53:46.433Z,35.15
2022-12-13T14:56:31.939Z,33.28
2022-12-13T14:59:17.387Z,30.42
2022-12-13T15:02:05.312Z,30.55
2022-12-13T15:04:57.322Z,32.22
2022-12-13T15:07:42.690Z,34.10
2022-12-13T15:10:38.995Z,34.67
2022-12-13T15:13:44.698Z,33.83
2022-12-13T15:16:30.040Z,33.35
2022-12-13T15:19:29.619Z,32.95
2022-12-13T15:22:21.112Z,34.95
2022-12-13T15:25:16.297Z,36.80
2022-12-13T15:28:05.163Z,38.20
2022-12-13T15:30:51.059Z,37.67
2022-12-13T15:33:44.087Z,37.55
2022-12-13T15:36:38.098Z,36.15
2022-12-13T15:39:24.756Z,36.60
2022-12-13T15:42:23.549Z,36.30
2022-12-13T15:45:36.660Z,34.88
2022-12-13T15:48:28.505Z,36.60
2022-12-13T15:51:28.529Z,38.78
2022-12-13T15:54:21.937Z,37.90
2022-12-13T15:57:21.610Z,39.05
2022-12-13T16:00:30.120Z,38.97
2022-12-13T16:03:21.275Z,33.40
2022-12-13T16:06:07.010Z,34.42
2022-12-13T16:08:56.829Z,32.45
2022-12-13T16:12:01.183Z,37.80
2022-12-13T16:14:49.611Z,31.95
2022-12-13T16:17:35.323Z,33.22
2022-12-13T16:20:23.170Z,33.33
2022-12-13T16:23:09.333Z,30.75
2022-12-13T16:25:54.797Z,30.63
2022-12-13T16:28:41.131Z,32.50
2022-12-13T16:31:35.495Z,30.65
2022-12-13T16:34:26.312Z,30.25
2022-12-13T16:37:26.436Z,32.85
2022-12-13T16:40:33.792Z,34.03
2022-12-13T16:43:23.567Z,32.88
2022-12-13T16:47:14.516Z,32.17
2022-12-13T16:49:27.081Z,33.20
2022-12-13T16:52:12.503Z,32.88
2022-12-13T16:55:00.510Z,30.50
2022-12-13T16:57:56.126Z,32.67
2022-12-13T17:00:43.852Z,35.90
2022-12-13T17:10:25.347Z,32.03
2022-12-13T17:13:11.075Z,29.40
2022-12-13T17:15:59.440Z,31.85
2022-12-13T17:18:46.305Z,29.75
2022-12-13T17:21:31.558Z,28.95
2022-12-13T17:24:18.024Z,29.83
2022-12-13T17:27:03.659Z,31.60
2022-12-13T17:29:49.140Z,32.35
2022-12-13T17:32:36.120Z,29.80
2022-12-13T17:35:21.686Z,28.52
2022-12-13T17:38:07.313Z,31.27
2022-12-13T17:40:54.627Z,30.85
2022-12-13T17:43:41.972Z,31.30
2022-12-13T17:46:28.024Z,30.98
2022-12-13T17:49:13.833Z,32.13
2022-12-13T17:51:59.298Z,32.53
2022-12-13T17:54:45.042Z,30.25
2022-12-13T17:57:33.172Z,29.77
2022-12-13T18:00:19.194Z,30.40
2022-12-13T18:03:04.513Z,31.92
2022-12-13T18:05:58.513Z,32.13
2022-12-13T18:08:46.106Z,31.13
2022-12-13T18:11:39.307Z,29.92
2022-12-13T18:14:25.018Z,31.92
2022-12-13T18:17:10.315Z,35.08
2022-12-13T18:19:55.460Z,30.65
2022-12-13T18:22:43.130Z,29.40
2022-12-13T18:25:34.526Z,30.70
2022-12-13T18:28:20.212Z,27.25
2022-12-13T18:31:10.054Z,31.17
2022-12-13T18:33:58.054Z,30.13
2022-12-13T18:36:43.428Z,30.10
2022-12-13T18:39:29.128Z,28.58
2022-12-13T18:42:15.003Z,31.65
2022-12-13T18:45:00.600Z,33.55
2022-12-13T18:47:46.017Z,34.25
2022-12-13T18:50:32.896Z,33.10
2022-12-13T18:53:18.273Z,32.90
2022-12-13T18:56:12.925Z,31.60
2022-12-13T18:59:03.297Z,30.55
2022-12-13T19:01:48.655Z,33.30
2022-12-13T19:04:35.786Z,32.50
2022-12-13T19:07:21.494Z,29.90
2022-12-13T19:10:07.271Z,29.45
2022-12-13T19:12:53.267Z,30.65
2022-12-13T19:15:40.333Z,30.63
2022-12-13T19:18:26.046Z,28.65
2022-12-13T19:21:15.757Z,28.75
2022-12-13T19:24:01.582Z,29.02
2022-12-13T19:26:47.262Z,29.23
2022-12-13T19:29:32.938Z,30.20
2022-12-13T19:32:18.825Z,30.52
2022-12-13T19:35:04.781Z,27.48
2022-12-13T19:37:49.977Z,26.33
2022-12-13T19:40:39.790Z,28.20
2022-12-13T19:43:25.781Z,25.95
2022-12-13T19:46:11.788Z,29.35
2022-12-13T19:48:57.075Z,26.45
2022-12-13T19:51:42.695Z,27.92
2022-12-13T19:54:28.222Z,27.13
2022-12-13T19:57:13.768Z,28.70
2022-12-13T19:59:59.235Z,28.35
2022-12-13T20:02:44.693Z,29.33
2022-12-13T20:05:30.233Z,30.58
2022-12-13T20:08:15.540Z,30.50
2022-12-13T20:11:13.457Z,30.77
2022-12-13T20:13:58.982Z,30.55
2022-12-13T20:16:44.223Z,32.50
2022-12-13T20:19:29.820Z,32.95
2022-12-13T20:22:15.604Z,29.52
2022-12-13T20:25:00.889Z,28.95
2022-12-13T20:27:46.161Z,29.48
2022-12-13T20:30:32.886Z,29.13
2022-12-13T20:33:18.168Z,30.92
2022-12-13T20:36:27.246Z,28.20
2022-12-13T20:39:14.710Z,27.27
2022-12-13T20:42:00.779Z,29.27
2022-12-13T20:44:46.287Z,32.25
2022-12-13T20:47:35.105Z,31.38
2022-12-13T20:50:23.165Z,29.50
2022-12-13T20:53:08.642Z,30.33
2022-12-13T20:56:00.807Z,29.73
2022-12-13T20:58:46.709Z,27.77
2022-12-13T21:01:35.107Z,26.65
2022-12-13T21:04:21.051Z,26.20
2022-12-13T21:07:06.853Z,29.45
2022-12-13T21:09:52.320Z,27.25
2022-12-13T21:12:37.719Z,26.30
2022-12-13T21:15:23.346Z,28.13
2022-12-13T21:18:08.685Z,26.23
2022-12-13T21:20:57.262Z,26.58
2022-12-13T21:23:42.630Z,27.30
2022-12-13T21:26:34.696Z,26.73
2022-12-13T21:29:21.114Z,27.92
2022-12-13T21:32:06.695Z,25.48
2022-12-13T21:34:52.180Z,24.92
2022-12-13T21:37:37.561Z,23.58
2022-12-13T21:40:24.134Z,23.10
2022-12-13T21:43:09.392Z,25.92
2022-12-13T21:45:54.797Z,22.85
2022-12-13T21:48:42.111Z,24.65
2022-12-13T21:51:30.615Z,26.27
2022-12-13T21:54:17.015Z,23.48
2022-12-13T21:57:20.863Z,24.00
2022-12-13T22:00:07.407Z,24.33
2022-12-13T22:02:58.601Z,22.02
2022-12-13T22:05:44.639Z,24.15
2022-12-13T22:08:31.059Z,24.13
2022-12-13T22:11:21.375Z,22.85
2022-12-13T22:14:06.994Z,25.60
2022-12-13T22:16:53.297Z,23.75
2022-12-13T22:19:39.052Z,24.45
2022-12-13T22:22:25.117Z,23.52
2022-12-13T22:25:11.009Z,22.45
2022-12-13T22:27:56.333Z,22.40
2022-12-13T22:30:42.160Z,29.08
2022-12-13T22:33:27.424Z,21.58
2022-12-13T22:36:14.003Z,21.88
2022-12-13T22:38:59.366Z,22.45
2022-12-13T22:41:45.618Z,20.40
2022-12-13T22:44:31.118Z,21.60
2022-12-13T22:47:16.699Z,22.55
2022-12-13T22:50:02.349Z,21.92
2022-12-13T22:52:47.569Z,23.30
2022-12-13T22:55:33.308Z,24.55
2022-12-13T22:58:18.647Z,22.58
2022-12-13T23:01:09.325Z,21.90
2022-12-13T23:03:54.821Z,18.63
2022-12-13T23:06:40.879Z,20.08
2022-12-13T23:09:26.669Z,20.58
2022-12-13T23:12:30.760Z,20.65
2022-12-13T23:15:16.146Z,20.08
2022-12-13T23:18:01.623Z,20.60
2022-12-13T23:20:48.570Z,19.75
2022-12-13T23:23:34.081Z,22.42
2022-12-13T23:26:22.227Z,19.95
2022-12-13T23:29:08.732Z,21.45
2022-12-13T23:31:54.055Z,19.70
2022-12-13T23:34:39.832Z,23.67
2022-12-13T23:37:25.445Z,20.95
2022-12-13T23:40:11.638Z,21.55
2022-12-13T23:42:57.021Z,21.45
2022-12-13T23:45:42.539Z,20.70
2022-12-13T23:48:28.854Z,20.23
2022-12-13T23:51:16.078Z,19.63
2022-12-13T23:54:01.532Z,17.55
2022-12-13T23:56:47.551Z,21.13
2022-12-13T23:59:32.570Z,16.48
